createdAt,value
2022-10-31T00:01:15.006Z,41.17
2022-10-31T00:03:41.862Z,31.00
2022-10-31T00:06:08.827Z,37.38
2022-10-31T00:08:35.744Z,35.55
2022-10-31T00:11:02.568Z,38.72
2022-10-31T00:13:29.354Z,34.08
2022-10-31T00:15:56.089Z,38.70
2022-10-31T00:18:22.825Z,40.45
2022-10-31T00:20:49.936Z,50.08
2022-10-31T00:23:17.082Z,42.05
2022-10-31T00:25:43.824Z,37.90
2022-10-31T00:28:12.691Z,35.10
2022-10-31T00:30:39.589Z,35.00
2022-10-31T00:33:06.417Z,44.33
2022-10-31T00:35:33.573Z,49.20
2022-10-31T00:38:00.369Z,51.28
2022-10-31T00:40:27.084Z,61.95
2022-10-31T00:42:54.146Z,60.40
2022-10-31T00:45:20.921Z,62.50
2022-10-31T00:47:47.618Z,57.47
2022-10-31T00:50:14.348Z,57.53
2022-10-31T00:52:41.499Z,65.35
2022-10-31T00:55:08.368Z,53.38
2022-10-31T00:57:35.065Z,68.10
2022-10-31T01:00:01.841Z,68.10
2022-10-31T01:02:28.670Z,70.18
2022-10-31T01:04:55.531Z,70.60
2022-10-31T01:07:22.215Z,65.20
2022-10-31T01:09:49.051Z,62.97
2022-10-31T01:12:15.786Z,60.17
2022-10-31T01:14:46.270Z,58.63
2022-10-31T01:17:14.003Z,60.13
2022-10-31T01:19:40.908Z,56.33
2022-10-31T01:22:07.673Z,58.10
2022-10-31T01:24:34.470Z,58.30
2022-10-31T01:27:01.409Z,66.97
2022-10-31T01:29:28.087Z,57.88
2022-10-31T01:31:54.845Z,78.75
2022-10-31T01:34:21.951Z,63.83
2022-10-31T01:36:52.277Z,59.08
2022-10-31T01:39:22.591Z,66.28
2022-10-31T01:41:52.009Z,62.50
2022-10-31T01:44:18.661Z,66.10
2022-10-31T01:46:59.951Z,65.88
2022-10-31T01:49:35.606Z,61.45
2022-10-31T01:52:09.907Z,64.90
2022-10-31T01:54:44.802Z,64.20
2022-10-31T01:57:15.462Z,65.60
2022-10-31T01:59:49.458Z,67.60
2022-10-31T02:02:19.616Z,67.63
2022-10-31T02:04:48.410Z,71.65
2022-10-31T02:07:21.955Z,64.78
2022-10-31T02:09:50.050Z,65.97
2022-10-31T02:12:18.479Z,51.28
2022-10-31T02:14:45.783Z,56.47
2022-10-31T02:17:12.658Z,55.78
2022-10-31T02:19:55.863Z,52.80
2022-10-31T02:25:18.241Z,48.17
2022-10-31T02:31:11.984Z,46.17
2022-10-31T02:33:54.444Z,45.30
2022-10-31T02:36:32.141Z,48.65
2022-10-31T02:39:16.868Z,54.88
2022-10-31T02:42:04.150Z,59.05
2022-10-31T02:44:54.825Z,45.78
2022-10-31T02:47:40.149Z,50.70
2022-10-31T02:50:32.022Z,44.20
2022-10-31T02:52:58.781Z,51.88
2022-10-31T02:55:28.614Z,49.60
2022-10-31T02:58:02.766Z,50.72
2022-10-31T03:00:39.196Z,44.10
2022-10-31T03:03:20.631Z,51.67
2022-10-31T03:06:08.251Z,46.65
2022-10-31T03:08:43.366Z,54.83
2022-10-31T03:11:10.999Z,66.00
2022-10-31T03:13:45.757Z,58.28
2022-10-31T03:16:31.310Z,66.97
2022-10-31T03:19:03.146Z,66.32
2022-10-31T03:21:56.122Z,61.15
2022-10-31T03:24:26.416Z,71.68
2022-10-31T03:26:55.657Z,75.28
2022-10-31T03:29:26.458Z,68.15
2022-10-31T03:32:00.150Z,58.65
2022-10-31T03:34:27.726Z,57.70
2022-10-31T03:36:58.492Z,62.58
2022-10-31T03:39:26.864Z,66.82
2022-10-31T03:42:03.226Z,53.20
2022-10-31T03:44:32.090Z,65.20
2022-10-31T03:46:59.371Z,57.17
2022-10-31T03:49:26.377Z,54.58
2022-10-31T03:52:07.525Z,56.28
2022-10-31T03:54:45.142Z,49.50
2022-10-31T03:57:25.349Z,54.50
2022-10-31T03:59:58.388Z,51.25
2022-10-31T04:04:57.543Z,58.47
2022-10-31T04:07:29.392Z,59.15
2022-10-31T04:09:57.645Z,58.60
2022-10-31T04:12:26.368Z,49.45
2022-10-31T04:14:55.134Z,52.42
2022-10-31T04:17:24.606Z,54.47
2022-10-31T04:19:51.310Z,46.40
2022-10-31T04:22:18.135Z,48.92
2022-10-31T04:24:44.905Z,55.13
2022-10-31T04:27:12.291Z,50.58
2022-10-31T04:29:38.993Z,49.92
2022-10-31T04:32:05.811Z,48.10
2022-10-31T04:34:32.521Z,44.17
2022-10-31T04:36:59.250Z,45.00
2022-10-31T04:39:26.847Z,41.28
2022-10-31T04:41:53.815Z,45.22
2022-10-31T04:44:20.636Z,58.50
2022-10-31T04:46:47.549Z,46.00
2022-10-31T04:49:14.399Z,48.55
2022-10-31T04:51:41.528Z,44.78
2022-10-31T04:54:08.281Z,49.10
2022-10-31T04:56:35.064Z,53.03
2022-10-31T04:59:02.312Z,61.28
2022-10-31T05:01:29.515Z,49.88
2022-10-31T05:03:56.469Z,55.42
2022-10-31T05:06:23.259Z,58.58
2022-10-31T05:08:50.028Z,70.47
2022-10-31T05:11:16.850Z,72.78
2022-10-31T05:13:43.539Z,78.97
2022-10-31T05:16:10.263Z,56.47
2022-10-31T05:18:37.153Z,59.78
2022-10-31T05:21:04.023Z,119.65
2022-10-31T05:23:30.779Z,56.38
2022-10-31T05:25:57.565Z,77.85
2022-10-31T05:28:24.298Z,131.88
2022-10-31T05:30:51.104Z,161.45
2022-10-31T05:33:17.842Z,169.90
2022-10-31T05:35:44.995Z,70.55
2022-10-31T05:38:11.709Z,78.25
2022-10-31T05:40:38.857Z,53.92
2022-10-31T05:43:05.511Z,69.30
2022-10-31T05:45:32.746Z,67.13
2022-10-31T05:48:01.578Z,74.55
2022-10-31T05:50:30.750Z,76.43
2022-10-31T05:52:57.454Z,54.72
2022-10-31T05:55:25.669Z,74.80
2022-10-31T05:57:53.560Z,74.88
2022-10-31T06:00:21.327Z,87.57
2022-10-31T06:02:48.173Z,67.47
2022-10-31T06:05:15.408Z,91.95
2022-10-31T06:07:42.166Z,70.55
2022-10-31T06:10:10.341Z,73.05
2022-10-31T06:12:38.764Z,79.47
2022-10-31T06:15:09.803Z,73.75
2022-10-31T06:17:37.222Z,92.20
2022-10-31T06:20:05.394Z,106.38
2022-10-31T06:22:32.669Z,85.05
2022-10-31T06:24:59.538Z,71.15
2022-10-31T06:27:26.596Z,64.07
2022-10-31T06:29:53.356Z,76.38
2022-10-31T06:32:20.226Z,344.85
2022-10-31T06:34:50.009Z,154.63
2022-10-31T06:37:17.044Z,106.63
2022-10-31T06:39:43.766Z,98.35
2022-10-31T06:42:10.537Z,97.10
2022-10-31T06:44:37.307Z,77.63
2022-10-31T06:47:04.157Z,69.80
2022-10-31T06:49:30.892Z,74.07
2022-10-31T06:51:57.647Z,70.85
2022-10-31T06:54:26.101Z,86.97
2022-10-31T06:56:55.947Z,83.10
2022-10-31T06:59:22.769Z,77.78
2022-10-31T07:01:49.528Z,72.63
2022-10-31T07:04:16.308Z,92.32
2022-10-31T07:06:44.422Z,75.05
2022-10-31T07:09:12.721Z,65.95
2022-10-31T07:11:39.650Z,77.20
2022-10-31T07:14:06.487Z,68.45
2022-10-31T07:16:33.167Z,77.45
2022-10-31T07:18:59.902Z,72.50
2022-10-31T07:21:26.646Z,95.47
2022-10-31T07:23:53.345Z,63.08
2022-10-31T07:26:20.070Z,78.65
2022-10-31T07:28:48.358Z,71.78
2022-10-31T07:31:15.112Z,85.03
2022-10-31T07:33:41.891Z,65.03
2022-10-31T07:36:08.918Z,92.80
2022-10-31T07:38:36.042Z,95.90
2022-10-31T07:41:03.208Z,54.92
2022-10-31T07:43:30.401Z,54.30
2022-10-31T07:45:57.108Z,66.97
2022-10-31T07:48:24.331Z,70.93
2022-10-31T07:50:51.172Z,72.22
2022-10-31T07:53:18.408Z,65.30
2022-10-31T07:55:45.590Z,59.35
2022-10-31T07:58:14.910Z,54.58
2022-10-31T08:00:43.672Z,52.40
2022-10-31T08:03:16.269Z,60.22
2022-10-31T08:05:45.720Z,49.72
2022-10-31T08:08:13.315Z,55.67
2022-10-31T08:10:41.630Z,57.33
2022-10-31T08:13:13.276Z,45.75
2022-10-31T08:15:42.444Z,72.03
2022-10-31T08:18:15.841Z,45.58
2022-10-31T08:20:43.742Z,48.38
2022-10-31T08:23:11.853Z,47.83
2022-10-31T08:25:40.949Z,40.78
2022-10-31T08:28:09.991Z,35.33
2022-10-31T08:30:38.383Z,35.63
2022-10-31T08:33:06.321Z,34.92
2022-10-31T08:35:34.323Z,29.45
2022-10-31T08:38:02.241Z,30.83
2022-10-31T08:40:31.348Z,32.83
2022-10-31T08:43:22.029Z,33.38
2022-10-31T08:45:50.411Z,27.42
2022-10-31T08:48:18.195Z,27.25
2022-10-31T08:50:46.200Z,30.60
2022-10-31T08:53:15.769Z,36.50
2022-10-31T08:55:44.176Z,29.60
2022-10-31T08:58:13.475Z,22.48
2022-10-31T09:00:40.601Z,25.10
2022-10-31T09:03:11.906Z,31.88
2022-10-31T09:05:38.895Z,28.65
2022-10-31T09:08:08.597Z,22.92
2022-10-31T09:10:38.862Z,26.40
2022-10-31T09:13:08.805Z,24.98
2022-10-31T09:15:39.199Z,22.40
2022-10-31T09:18:07.602Z,22.85
2022-10-31T09:20:36.028Z,21.83
2022-10-31T09:23:15.680Z,25.77
2022-10-31T09:25:47.713Z,21.25
2022-10-31T09:28:18.966Z,26.05
2022-10-31T09:30:48.763Z,24.20
2022-10-31T09:33:15.587Z,23.73
2022-10-31T09:35:42.950Z,32.08
2022-10-31T09:38:13.288Z,39.22
2022-10-31T09:40:45.863Z,29.85
2022-10-31T09:43:20.878Z,47.05
2022-10-31T09:45:54.880Z,39.35
2022-10-31T09:48:30.065Z,29.52
2022-10-31T09:51:01.221Z,36.72
2022-10-31T09:53:50.429Z,27.27
2022-10-31T09:56:21.443Z,31.77
2022-10-31T09:58:54.784Z,29.52
2022-10-31T10:01:27.397Z,38.80
2022-10-31T10:04:00.163Z,39.05
2022-10-31T10:08:57.530Z,44.45
2022-10-31T10:11:42.438Z,26.92
2022-10-31T10:14:41.792Z,28.77
2022-10-31T10:17:36.336Z,34.22
2022-10-31T10:20:24.173Z,39.92
2022-10-31T10:23:00.986Z,42.67
2022-10-31T10:25:41.752Z,35.75
2022-10-31T10:28:12.475Z,28.67
2022-10-31T10:31:15.270Z,35.45
2022-10-31T10:33:55.745Z,47.42
2022-10-31T10:36:39.897Z,69.45
2022-10-31T10:39:17.542Z,68.35
2022-10-31T10:41:48.491Z,47.40
2022-10-31T10:44:16.662Z,72.50
2022-10-31T10:47:22.235Z,59.45
2022-10-31T10:49:53.175Z,72.90
2022-10-31T10:52:51.142Z,72.82
2022-10-31T10:55:30.087Z,64.13
2022-10-31T10:58:03.555Z,91.25
2022-10-31T11:00:37.414Z,67.57
2022-10-31T11:03:05.972Z,85.15
2022-10-31T11:05:42.013Z,59.90
2022-10-31T11:08:09.377Z,50.35
2022-10-31T11:10:37.246Z,85.53
2022-10-31T11:13:17.042Z,43.90
2022-10-31T11:16:05.380Z,59.25
2022-10-31T11:18:34.876Z,113.47
2022-10-31T11:21:06.845Z,104.05
2022-10-31T11:23:35.619Z,112.30
2022-10-31T11:26:10.987Z,64.28
2022-10-31T11:29:12.180Z,90.75
2022-10-31T11:31:41.760Z,67.75
2022-10-31T11:34:14.560Z,72.60
2022-10-31T11:36:46.239Z,137.75
2022-10-31T11:39:28.815Z,182.88
2022-10-31T11:41:56.255Z,460.98
2022-10-31T11:44:29.269Z,326.23
2022-10-31T11:47:03.538Z,218.40
2022-10-31T11:49:37.944Z,114.22
2022-10-31T11:52:29.535Z,94.32
2022-10-31T11:55:00.337Z,140.43
2022-10-31T11:57:33.145Z,70.63
2022-10-31T12:03:25.445Z,75.50
2022-10-31T12:06:21.180Z,89.32
2022-10-31T12:08:47.962Z,75.10
2022-10-31T12:11:39.662Z,50.83
2022-10-31T12:14:35.438Z,71.17
2022-10-31T12:17:26.100Z,62.63
2022-10-31T12:20:19.221Z,37.50
2022-10-31T12:23:07.292Z,38.47
2022-10-31T12:25:59.038Z,54.90
2022-10-31T12:28:34.636Z,53.75
2022-10-31T12:31:13.854Z,67.55
2022-10-31T12:33:58.680Z,94.30
2022-10-31T12:36:50.624Z,68.40
2022-10-31T12:39:32.289Z,37.00
2022-10-31T12:42:17.174Z,64.40
2022-10-31T12:44:50.027Z,26.20
2022-10-31T12:47:35.237Z,22.77
2022-10-31T12:50:20.236Z,22.60
2022-10-31T12:53:14.247Z,32.85
2022-10-31T12:55:49.837Z,28.63
2022-10-31T12:58:25.437Z,37.45
2022-10-31T13:01:11.455Z,23.05
2022-10-31T13:04:04.861Z,35.45
2022-10-31T13:06:42.038Z,24.05
2022-10-31T13:09:16.403Z,38.65
2022-10-31T13:11:56.393Z,24.55
2022-10-31T13:14:34.258Z,26.45
2022-10-31T13:17:02.885Z,22.92
2022-10-31T13:19:32.463Z,16.38
2022-10-31T13:22:10.406Z,15.70
2022-10-31T13:24:45.425Z,12.70
2022-10-31T13:27:34.504Z,17.80
2022-10-31T13:30:03.411Z,14.18
2022-10-31T13:32:45.456Z,16.30
2022-10-31T13:35:22.216Z,16.35
2022-10-31T13:38:06.080Z,20.38
2022-10-31T13:41:04.180Z,20.00
2022-10-31T13:44:05.665Z,22.15
2022-10-31T13:46:40.123Z,22.40
2022-10-31T13:49:25.373Z,23.23
2022-10-31T13:51:55.454Z,17.60
2022-10-31T13:54:22.498Z,15.10
2022-10-31T13:56:53.623Z,17.10
2022-10-31T13:59:29.999Z,17.45
2022-10-31T14:02:02.428Z,15.50
2022-10-31T14:04:32.499Z,13.55
2022-10-31T14:07:05.884Z,20.00
2022-10-31T14:09:37.942Z,17.15
2022-10-31T14:12:29.783Z,14.50
2022-10-31T14:15:06.050Z,12.48
2022-10-31T14:17:47.306Z,12.48
2022-10-31T14:20:17.108Z,13.95
2022-10-31T14:22:44.211Z,16.67
2022-10-31T14:25:35.354Z,13.90
2022-10-31T14:28:31.951Z,15.43
2022-10-31T14:30:59.995Z,16.67
2022-10-31T14:33:29.498Z,12.50
2022-10-31T14:36:10.455Z,11.60
2022-10-31T14:39:01.737Z,11.38
2022-10-31T14:41:37.455Z,15.93
2022-10-31T14:44:30.086Z,8.95
2022-10-31T14:47:23.138Z,12.18
2022-10-31T14:50:26.906Z,15.05
2022-10-31T14:52:57.712Z,16.95
2022-10-31T14:55:26.569Z,10.10
2022-10-31T14:58:05.229Z,10.43
2022-10-31T15:00:33.972Z,15.95
2022-10-31T15:03:13.278Z,11.57
2022-10-31T15:06:02.447Z,14.50
2022-10-31T15:08:39.116Z,14.65
2022-10-31T15:11:17.748Z,11.98
2022-10-31T15:13:56.120Z,14.05
2022-10-31T15:16:27.080Z,11.50
2022-10-31T15:19:04.815Z,12.65
2022-10-31T15:21:32.272Z,15.00
2022-10-31T15:24:01.133Z,13.77
2022-10-31T15:26:36.411Z,11.10
2022-10-31T15:29:06.123Z,15.35
2022-10-31T15:31:33.675Z,13.90
2022-10-31T15:34:06.395Z,12.77
2022-10-31T15:39:05.499Z,18.00
2022-10-31T15:41:34.947Z,15.90
2022-10-31T15:44:31.786Z,15.13
2022-10-31T15:46:58.483Z,14.93
2022-10-31T15:49:41.796Z,16.27
2022-10-31T15:52:33.481Z,14.70
2022-10-31T15:55:03.967Z,16.75
2022-10-31T15:57:32.009Z,15.25
2022-10-31T15:59:59.306Z,14.43
2022-10-31T16:02:28.195Z,15.40
2022-10-31T16:05:20.833Z,14.82
2022-10-31T16:07:52.879Z,12.30
2022-10-31T16:10:27.546Z,17.13
2022-10-31T16:12:54.905Z,14.02
2022-10-31T16:15:22.359Z,14.93
2022-10-31T16:17:51.787Z,12.38
2022-10-31T16:20:32.977Z,12.25
2022-10-31T16:23:02.536Z,15.10
2022-10-31T16:25:39.132Z,12.25
2022-10-31T16:30:48.384Z,16.67
2022-10-31T16:33:37.800Z,25.63
2022-10-31T16:36:35.872Z,23.42
2022-10-31T16:39:06.172Z,42.20
2022-10-31T16:41:36.943Z,40.22
2022-10-31T16:44:07.538Z,29.25
2022-10-31T16:46:34.268Z,30.75
2022-10-31T16:49:01.845Z,19.50
2022-10-31T16:51:28.916Z,21.35
2022-10-31T16:53:56.180Z,19.10
2022-10-31T16:56:34.344Z,15.45
2022-10-31T17:01:53.883Z,18.00
2022-10-31T17:04:20.858Z,19.15
2022-10-31T17:06:49.402Z,15.00
2022-10-31T17:09:18.349Z,15.13
2022-10-31T17:11:52.780Z,15.10
2022-10-31T17:14:20.673Z,14.00
2022-10-31T17:16:47.570Z,17.08
2022-10-31T17:19:18.821Z,17.38
2022-10-31T17:21:45.725Z,14.98
2022-10-31T17:24:23.406Z,14.73
2022-10-31T17:26:52.197Z,15.05
2022-10-31T17:29:19.196Z,17.80
2022-10-31T17:31:48.091Z,17.77
2022-10-31T17:34:14.931Z,20.92
2022-10-31T17:36:43.491Z,21.05
2022-10-31T17:39:11.377Z,15.77
2022-10-31T17:44:19.974Z,17.13
2022-10-31T17:46:47.508Z,21.13
2022-10-31T17:49:22.788Z,22.75
2022-10-31T17:51:52.262Z,22.77
2022-10-31T17:54:22.721Z,25.80
2022-10-31T17:56:49.512Z,23.50
2022-10-31T17:59:17.256Z,19.65
2022-10-31T18:04:28.797Z,25.10
2022-10-31T18:06:56.680Z,21.08
2022-10-31T18:09:24.418Z,18.02
2022-10-31T18:11:52.030Z,22.98
2022-10-31T18:14:18.818Z,28.48
2022-10-31T18:16:47.387Z,26.95
2022-10-31T18:19:16.522Z,25.65
2022-10-31T18:21:48.041Z,27.25
2022-10-31T18:24:16.988Z,28.75
2022-10-31T18:26:45.890Z,32.17
2022-10-31T18:29:12.801Z,22.77
2022-10-31T18:31:39.752Z,22.35
2022-10-31T18:34:06.488Z,26.38
2022-10-31T18:36:33.387Z,28.60
2022-10-31T18:39:00.877Z,25.77
2022-10-31T18:41:27.638Z,31.88
2022-10-31T18:44:14.344Z,41.33
2022-10-31T18:46:41.291Z,32.45
2022-10-31T18:49:10.595Z,52.25
2022-10-31T18:51:37.416Z,48.72
2022-10-31T18:54:04.505Z,39.35
2022-10-31T18:56:31.779Z,65.90
2022-10-31T18:59:04.677Z,34.67
2022-10-31T19:06:42.327Z,38.88
2022-10-31T19:09:09.984Z,42.80
2022-10-31T19:11:38.349Z,37.03
2022-10-31T19:14:08.172Z,36.08
2022-10-31T19:16:35.405Z,33.42
2022-10-31T19:19:02.328Z,36.40
2022-10-31T19:21:31.146Z,38.40
2022-10-31T19:23:59.231Z,34.75
2022-10-31T19:26:27.313Z,35.28
2022-10-31T19:28:55.953Z,314.50
2022-10-31T19:31:23.059Z,309.80
2022-10-31T19:33:49.887Z,328.05
2022-10-31T19:36:18.741Z,203.60
2022-10-31T19:38:47.785Z,179.70
2022-10-31T19:41:18.074Z,225.65
2022-10-31T19:43:45.046Z,251.05
2022-10-31T19:46:22.184Z,262.30
2022-10-31T19:48:55.226Z,133.07
2022-10-31T19:51:22.554Z,169.45
2022-10-31T19:53:52.494Z,108.00
2022-10-31T19:56:25.068Z,148.65
2022-10-31T19:58:52.061Z,112.47
2022-10-31T20:01:22.164Z,161.02
2022-10-31T20:03:49.624Z,140.90
2022-10-31T20:06:24.303Z,171.55
2022-10-31T20:08:52.404Z,142.63
2022-10-31T20:11:19.203Z,131.20
2022-10-31T20:13:46.073Z,170.05
2022-10-31T20:16:13.998Z,118.03
2022-10-31T20:18:41.507Z,181.10
2022-10-31T20:21:14.387Z,135.80
2022-10-31T20:23:41.425Z,134.75
2022-10-31T20:26:13.238Z,143.73
2022-10-31T20:28:43.323Z,159.15
2022-10-31T20:31:16.919Z,139.43
2022-10-31T20:33:43.814Z,148.73
2022-10-31T20:36:10.855Z,145.07
2022-10-31T20:38:39.359Z,207.57
2022-10-31T20:41:07.969Z,212.40
2022-10-31T20:43:35.072Z,189.57
2022-10-31T20:46:02.360Z,147.65
2022-10-31T20:48:30.249Z,148.00
2022-10-31T20:51:02.390Z,182.45
2022-10-31T20:53:29.412Z,167.30
2022-10-31T20:56:07.691Z,185.52
2022-10-31T20:58:35.817Z,164.50
2022-10-31T21:01:02.836Z,175.27
2022-10-31T21:03:29.878Z,158.68
2022-10-31T21:05:58.695Z,174.77
2022-10-31T21:08:26.751Z,172.10
2022-10-31T21:10:54.513Z,153.55
2022-10-31T21:13:21.857Z,161.85
2022-10-31T21:15:59.060Z,231.18
2022-10-31T21:18:25.815Z,256.83
2022-10-31T21:20:52.691Z,192.80
2022-10-31T21:23:19.472Z,194.05
2022-10-31T21:25:46.397Z,257.73
2022-10-31T21:28:13.505Z,193.23
2022-10-31T21:30:42.403Z,273.60
2022-10-31T21:33:09.477Z,176.95
2022-10-31T21:35:36.939Z,183.73
2022-10-31T21:38:04.588Z,152.52
2022-10-31T21:40:31.914Z,165.35
2022-10-31T21:42:59.167Z,146.52
2022-10-31T21:45:26.452Z,191.80
2022-10-31T21:47:53.443Z,148.52
2022-10-31T21:50:20.671Z,184.23
2022-10-31T21:52:47.552Z,204.18
2022-10-31T21:55:14.329Z,190.00
2022-10-31T21:57:41.123Z,217.88
2022-10-31T22:00:10.088Z,215.32
2022-10-31T22:02:37.449Z,231.60
2022-10-31T22:05:08.473Z,194.70
2022-10-31T22:07:35.373Z,248.00
2022-10-31T22:10:03.241Z,245.70
2022-10-31T22:12:29.942Z,194.02
2022-10-31T22:14:56.711Z,237.95
2022-10-31T22:17:23.490Z,167.50
2022-10-31T22:19:50.246Z,151.50
2022-10-31T22:22:17.016Z,263.73
2022-10-31T22:24:43.795Z,245.35
2022-10-31T22:27:13.468Z,182.45
2022-10-31T22:29:40.227Z,166.10
2022-10-31T22:32:07.013Z,171.48
2022-10-31T22:34:39.967Z,243.98
2022-10-31T22:39:33.493Z,225.27
2022-10-31T22:42:00.250Z,148.10
2022-10-31T22:44:30.015Z,207.57
2022-10-31T22:46:56.790Z,197.57
2022-10-31T22:49:23.732Z,205.40
2022-10-31T22:51:55.782Z,148.43
2022-10-31T22:54:22.581Z,176.43
2022-10-31T22:56:52.341Z,203.48
2022-10-31T22:59:19.329Z,237.55
2022-10-31T23:01:48.194Z,165.25
2022-10-31T23:04:35.674Z,153.65
2022-10-31T23:07:03.102Z,139.52
2022-10-31T23:09:30.059Z,161.02
2022-10-31T23:12:21.824Z,242.57
2022-10-31T23:14:48.844Z,172.82
2022-10-31T23:17:17.694Z,263.67
2022-10-31T23:19:45.761Z,261.33
2022-10-31T23:22:13.115Z,177.60
2022-10-31T23:24:45.711Z,217.60
2022-10-31T23:27:37.160Z,132.20
2022-10-31T23:30:05.615Z,186.27
2022-10-31T23:32:37.556Z,164.95
2022-10-31T23:35:09.892Z,91.93
2022-10-31T23:37:38.566Z,88.43
2022-10-31T23:40:08.138Z,86.35
2022-10-31T23:42:35.190Z,121.38
2022-10-31T23:45:01.981Z,140.98
2022-10-31T23:47:28.691Z,184.70
2022-10-31T23:49:55.426Z,126.20
2022-10-31T23:52:22.273Z,189.20
2022-10-31T23:54:49.080Z,207.35
2022-10-31T23:57:16.809Z,158.77
2022-10-31T23:59:46.726Z,229.68
